Time;durP1;ratioP1;P1;durP2;ratioP2;P2;SDS_P1;SDS_P2;PMS_P1;PMS_P2;Temp;Humidity;BMP_temperature;BMP_pressure;BME280_temperature;BME280_humidity;BME280_pressure;Samples;Min_cycle;Max_cycle;Signal;HPM_P1;HPM_P2
2023/02/23 00:00:27;;;;;;;13.68;8.82;;;;;;;5.75;100.00;98091.25;4191828;28;19969;-76
2023/02/23 00:02:27;;;;;;;11.35;7.85;;;;;;;5.85;100.00;98098.94;4192999;28;20115;-76
2023/02/23 00:04:28;;;;;;;11.73;7.75;;;;;;;5.91;100.00;98092.06;4191834;28;20072;-76
2023/02/23 00:06:30;;;;;;;14.27;8.07;;;;;;;5.95;100.00;98101.16;4190842;28;20427;-76
2023/02/23 00:08:34;;;;;;;13.15;8.30;;;;;;;5.96;100.00;98104.72;4192330;28;20080;-76
2023/02/23 00:10:34;;;;;;;11.75;7.90;;;;;;;5.92;100.00;98093.66;4193083;28;20116;-76
2023/02/23 00:12:35;;;;;;;13.35;8.40;;;;;;;5.92;100.00;98101.91;4191060;28;20413;-76
2023/02/23 00:14:36;;;;;;;12.60;8.18;;;;;;;5.90;100.00;98096.75;4193391;28;20377;-76
2023/02/23 00:16:37;;;;;;;11.17;7.63;;;;;;;5.92;100.00;98101.91;4192094;28;20507;-76
2023/02/23 00:18:44;;;;;;;12.38;7.93;;;;;;;5.93;100.00;98099.94;4191637;28;20040;-76
2023/02/23 00:20:47;;;;;;;10.38;7.30;;;;;;;5.87;100.00;98105.66;4197168;28;20043;-77
2023/02/23 00:22:47;;;;;;;14.60;8.55;;;;;;;5.83;100.00;98095.78;4191711;28;20084;-76
2023/02/23 00:24:49;;;;;;;13.65;8.32;;;;;;;5.79;100.00;98097.63;4191589;28;20078;-76
2023/02/23 00:26:50;;;;;;;13.13;7.63;;;;;;;5.75;100.00;98089.31;4193083;28;20051;-76
2023/02/23 00:28:52;;;;;;;14.38;9.60;;;;;;;5.75;100.00;98092.06;4192585;28;20392;-76
2023/02/23 00:30:53;;;;;;;14.10;9.02;;;;;;;5.77;100.00;98097.97;4193635;28;20044;-76
2023/02/23 00:32:53;;;;;;;12.63;9.18;;;;;;;5.75;100.00;98094.00;4191051;28;20357;-76
2023/02/23 00:34:53;;;;;;;14.93;8.68;;;;;;;5.77;100.00;98102.66;4192534;28;20057;-76
2023/02/23 00:36:54;;;;;;;12.00;7.75;;;;;;;5.76;100.00;98101.09;4198112;28;20201;-76
2023/02/23 00:38:57;;;;;;;17.70;9.15;;;;;;;5.76;100.00;98101.09;4192028;28;20349;-76
2023/02/23 00:40:57;;;;;;;10.88;8.23;;;;;;;5.73;100.00;98105.34;4192811;28;20044;-76
2023/02/23 00:42:58;;;;;;;12.77;8.95;;;;;;;5.73;100.00;98105.34;4190279;28;20033;-76
2023/02/23 00:45:05;;;;;;;11.13;7.72;;;;;;;5.74;100.00;98103.41;4196527;28;20044;-76
2023/02/23 00:47:06;;;;;;;12.65;8.88;;;;;;;5.73;100.00;98101.81;4191414;28;20480;-76
2023/02/23 00:49:06;;;;;;;11.65;7.82;;;;;;;5.70;100.00;98100.53;4190409;28;20037;-76
2023/02/23 00:51:06;;;;;;;10.32;7.60;;;;;;;5.67;100.00;98100.47;4190101;28;20131;-76
2023/02/23 00:53:07;;;;;;;10.88;7.60;;;;;;;5.68;100.00;98110.28;4189052;28;20111;-76
2023/02/23 00:55:09;;;;;;;11.55;8.52;;;;;;;5.63;100.00;98092.97;4195173;28;20396;-76
2023/02/23 00:57:09;;;;;;;13.90;9.25;;;;;;;5.62;100.00;98099.56;4191144;28;20196;-76
2023/02/23 00:59:11;;;;;;;13.35;8.23;;;;;;;5.62;100.00;98104.25;4194329;28;20090;-76
2023/02/23 01:01:12;;;;;;;13.80;8.60;;;;;;;5.62;100.00;98104.25;4192025;28;20496;-76
2023/02/23 01:03:13;;;;;;;13.33;8.73;;;;;;;5.63;100.00;98111.38;4190609;28;20124;-76
2023/02/23 01:05:15;;;;;;;13.75;8.43;;;;;;;5.66;100.00;98104.38;4191272;28;20134;-76
2023/02/23 01:07:15;;;;;;;14.43;8.88;;;;;;;5.64;100.00;98104.72;4190262;28;20063;-76
2023/02/23 01:09:26;;;;;;;13.13;8.85;;;;;;;5.66;100.00;98104.38;4190529;28;20052;-76
2023/02/23 01:11:27;;;;;;;14.57;9.00;;;;;;;5.68;100.00;98104.81;4192481;28;20446;-76
2023/02/23 01:13:27;;;;;;;12.82;9.40;;;;;;;5.70;100.00;98103.28;4189817;28;20101;-76
2023/02/23 01:15:28;;;;;;;16.20;9.48;;;;;;;5.75;100.00;98103.03;4191289;28;20296;-76
2023/02/23 01:17:29;;;;;;;15.75;10.30;;;;;;;5.80;100.00;98100.03;4193736;28;20111;-76
2023/02/23 01:19:32;;;;;;;12.45;8.85;;;;;;;5.85;100.00;98102.50;4193376;28;20044;-76
2023/02/23 01:21:37;;;;;;;13.73;8.40;;;;;;;5.89;100.00;98100.63;4191435;28;20116;-76
2023/02/23 01:23:37;;;;;;;11.18;8.65;;;;;;;5.92;100.00;98101.91;4189744;28;20048;-76
2023/02/23 01:25:38;;;;;;;12.50;8.32;;;;;;;5.90;100.00;98096.75;4190325;28;20576;-76
2023/02/23 01:27:40;;;;;;;13.32;9.13;;;;;;;5.91;100.00;98097.56;4196957;28;20047;-76
2023/02/23 01:29:40;;;;;;;15.07;9.25;;;;;;;5.93;100.00;98106.22;4198852;28;20068;-76
2023/02/23 01:31:46;;;;;;;12.43;8.63;;;;;;;5.92;100.00;98099.16;4190869;28;20040;-76
2023/02/23 01:33:51;;;;;;;15.48;8.38;;;;;;;5.94;100.00;98096.84;4189283;28;20056;-76
2023/02/23 01:35:58;;;;;;;17.10;10.50;;;;;;;5.87;100.00;98088.41;4194796;28;20091;-76
2023/02/23 01:37:59;;;;;;;16.80;10.68;;;;;;;5.83;100.00;98090.28;4192568;28;20052;-76
2023/02/23 01:39:59;;;;;;;17.23;9.38;;;;;;;5.83;100.00;98093.03;4191977;28;20044;-76
2023/02/23 01:41:59;;;;;;;11.82;8.35;;;;;;;5.82;100.00;98091.44;4190401;28;20128;-76
2023/02/23 01:44:04;;;;;;;12.02;8.10;;;;;;;5.84;100.00;98105.59;4189928;28;20045;-76
2023/02/23 01:46:04;;;;;;;13.02;8.35;;;;;;;5.83;100.00;98093.03;4190296;28;20044;-76
2023/02/23 01:48:20;;;;;;;11.93;8.25;;;;;;;5.85;100.00;98102.50;4190513;28;20025;-76
2023/02/23 01:50:23;;;;;;;11.90;8.95;;;;;;;5.87;100.00;98100.19;4190866;28;20120;-76
2023/02/23 01:52:24;;;;;;;11.00;7.90;;;;;;;5.91;100.00;98095.59;4194397;28;20607;-76
2023/02/23 01:54:30;;;;;;;12.77;8.88;;;;;;;6.00;100.00;98100.13;4192450;28;20068;-76
2023/02/23 01:56:42;;;;;;;14.73;9.00;;;;;;;6.14;100.00;98087.50;4194636;28;20052;-76
2023/02/23 01:58:50;;;;;;;14.55;8.80;;;;;;;6.17;100.00;98086.00;4189777;28;20372;-76
2023/02/23 02:00:54;;;;;;;14.10;8.57;;;;;;;6.22;100.00;98095.91;4189860;28;20036;-76
2023/02/23 02:02:57;;;;;;;15.02;9.23;;;;;;;6.22;100.00;98082.97;4190198;28;20044;-76
2023/02/23 02:04:58;;;;;;;13.43;8.93;;;;;;;6.19;100.00;98089.97;4193866;28;20048;-76
2023/02/23 02:07:02;;;;;;;14.75;9.38;;;;;;;6.18;100.00;98085.63;4190704;28;20500;-76
2023/02/23 02:09:16;;;;;;;12.60;8.00;;;;;;;6.21;100.00;98084.13;4194717;28;20115;-76
2023/02/23 02:11:29;;;;;;;13.48;9.00;;;;;;;6.17;100.00;98081.28;4189605;28;20059;-76
2023/02/23 02:13:31;;;;;;;13.23;9.20;;;;;;;6.13;100.00;98076.88;4189713;28;20037;-76
2023/02/23 02:15:37;;;;;;;12.10;8.65;;;;;;;6.11;100.00;98079.19;4190478;28;20537;-76
2023/02/23 02:17:44;;;;;;;16.15;9.07;;;;;;;6.12;100.00;98075.28;4194222;28;20045;-76
2023/02/23 02:19:50;;;;;;;12.45;8.13;;;;;;;6.15;100.00;98082.81;4189817;28;20477;-76
2023/02/23 02:22:16;;;;;;;13.57;8.65;;;;;;;6.10;100.00;98077.59;4195098;28;20060;-76
2023/02/23 02:24:21;;;;;;;11.23;8.35;;;;;;;6.05;100.00;98081.44;4188972;28;20442;-76
2023/02/23 02:26:40;;;;;;;12.23;7.57;;;;;;;5.98;100.00;98077.72;4192630;28;20090;-76
2023/02/23 02:28:58;;;;;;;11.93;8.75;;;;;;;5.90;100.00;98072.06;4196696;28;20137;-76
2023/02/23 02:31:18;;;;;;;13.18;8.73;;;;;;;5.95;100.00;98079.19;4190207;28;20119;-76
2023/02/23 02:33:31;;;;;;;15.25;9.48;;;;;;;5.90;100.00;98076.72;4189435;28;20056;-76
2023/02/23 02:35:47;;;;;;;13.48;9.45;;;;;;;5.95;100.00;98067.44;4189865;28;20131;-76
2023/02/23 02:38:22;;;;;;;15.57;10.18;;;;;;;6.00;100.00;98073.44;4190929;28;20122;-76
2023/02/23 02:40:38;;;;;;;11.95;9.25;;;;;;;5.97;100.00;98071.44;4190645;28;20036;-76
2023/02/23 02:42:54;;;;;;;12.98;9.32;;;;;;;5.99;100.00;98073.81;4189195;28;20048;-76
2023/02/23 02:44:58;;;;;;;15.77;9.38;;;;;;;5.99;100.00;98073.81;4190420;28;20102;-76
2023/02/23 02:47:06;;;;;;;13.77;8.82;;;;;;;5.96;100.00;98069.84;4189063;28;20495;-76
2023/02/23 02:49:35;;;;;;;19.17;9.45;;;;;;;6.04;100.00;98066.09;4194326;28;20497;-76
2023/02/23 02:51:52;;;;;;;13.93;9.52;;;;;;;6.03;100.00;98072.72;4191850;28;20052;-76
2023/02/23 02:54:05;;;;;;;14.75;10.18;;;;;;;6.06;100.00;98072.03;4192930;28;20528;-76
2023/02/23 02:56:06;;;;;;;16.35;10.02;;;;;;;6.05;100.00;98066.91;4192761;28;20098;-76
2023/02/23 02:58:10;;;;;;;12.85;8.82;;;;;;;6.05;100.00;98073.19;4192581;28;20024;-76
2023/02/23 04:17:58;;;;;;;16.77;10.18;;;;;;;5.36;100.00;98102.03;4191600;28;20308;-76
2023/02/23 04:19:58;;;;;;;16.50;10.18;;;;;;;5.30;100.00;98098.78;4191610;28;20127;-76
2023/02/23 04:21:59;;;;;;;17.85;11.68;;;;;;;5.29;100.00;98108.13;4194517;28;20086;-76
2023/02/23 04:23:59;;;;;;;18.08;10.93;;;;;;;5.26;100.00;98100.63;4192960;28;20044;-76
2023/02/23 04:25:59;;;;;;;19.92;10.98;;;;;;;5.26;100.00;98099.81;4191919;28;20036;-76
2023/02/23 04:28:00;;;;;;;17.67;10.32;;;;;;;5.27;100.00;98106.91;4190360;28;20048;-76
2023/02/23 04:30:02;;;;;;;16.45;10.57;;;;;;;5.26;100.00;98103.38;4191765;28;20135;-76
2023/02/23 04:32:03;;;;;;;18.17;10.95;;;;;;;5.25;100.00;98101.78;4191682;28;20102;-76
2023/02/23 04:34:03;;;;;;;18.05;10.15;;;;;;;5.27;100.00;98096.72;4190184;28;20461;-76
2023/02/23 04:36:04;;;;;;;19.30;11.80;;;;;;;5.28;100.00;98097.53;4192741;28;20448;-76
2023/02/23 04:38:05;;;;;;;18.30;10.30;;;;;;;5.27;100.00;98101.41;4192171;28;20099;-76
2023/02/23 04:40:06;;;;;;;17.65;11.38;;;;;;;5.30;100.00;98103.47;4190653;28;20373;-76
2023/02/23 04:42:07;;;;;;;17.55;10.40;;;;;;;5.26;100.00;98095.13;4190879;28;20028;-76
2023/02/23 04:44:07;;;;;;;15.52;9.82;;;;;;;5.30;100.00;98106.22;4191418;28;20357;-76
2023/02/23 04:46:07;;;;;;;15.50;10.27;;;;;;;5.27;100.00;98104.16;4194464;28;20028;-76
2023/02/23 04:48:08;;;;;;;15.73;9.80;;;;;;;5.25;100.00;98106.47;4191338;28;20032;-76
2023/02/23 04:50:09;;;;;;;15.10;10.25;;;;;;;5.26;100.00;98111.59;4190371;28;20050;-76
2023/02/23 04:52:09;;;;;;;16.83;9.98;;;;;;;5.23;100.00;98108.78;4189846;28;20040;-76
2023/02/23 04:54:10;;;;;;;16.40;11.30;;;;;;;5.20;100.00;98106.72;4190294;28;20232;-75
2023/02/23 04:56:10;;;;;;;16.38;10.25;;;;;;;5.20;100.00;98114.94;4193020;28;20154;-75
2023/02/23 04:58:12;;;;;;;13.23;9.32;;;;;;;5.18;100.00;98109.03;4191364;28;20119;-75
2023/02/23 05:00:14;;;;;;;15.75;11.05;;;;;;;5.19;100.00;98108.66;4188302;28;20071;-75
2023/02/23 05:02:14;;;;;;;16.83;10.53;;;;;;;5.19;100.00;98118.84;4190189;28;20017;-75
2023/02/23 05:04:15;;;;;;;16.00;10.30;;;;;;;5.18;100.00;98114.50;4191760;28;20700;-75
2023/02/23 05:06:18;;;;;;;16.73;10.07;;;;;;;5.17;100.00;98108.22;4189834;28;20017;-75
2023/02/23 05:08:19;;;;;;;15.77;9.82;;;;;;;5.18;100.00;98101.59;4193428;28;20972;-75
2023/02/23 05:10:19;;;;;;;16.50;9.35;;;;;;;5.17;100.00;98108.22;4192953;28;20071;-75
2023/02/23 05:12:20;;;;;;;13.70;9.05;;;;;;;5.21;100.00;98108.31;4192617;28;20029;-75
2023/02/23 05:14:21;;;;;;;16.10;10.10;;;;;;;5.17;100.00;98104.69;4193202;28;20036;-75
2023/02/23 05:16:21;;;;;;;19.02;10.25;;;;;;;5.15;100.00;98109.72;4191118;28;20052;-75
2023/02/23 05:18:21;;;;;;;14.75;10.27;;;;;;;5.16;100.00;98111.31;4189612;28;20451;-75
2023/02/23 05:20:22;;;;;;;17.98;11.38;;;;;;;5.11;100.00;98103.34;4190197;28;20241;-75
2023/02/23 05:22:22;;;;;;;17.92;11.63;;;;;;;5.06;100.00;98099.72;4187410;28;20044;-75
2023/02/23 05:24:22;;;;;;;17.17;11.05;;;;;;;5.03;100.00;98097.66;4191136;28;20044;-75
2023/02/23 05:26:23;;;;;;;24.58;15.50;;;;;;;5.05;100.00;98103.59;4195552;28;20040;-75
2023/02/23 05:28:23;;;;;;;21.58;14.55;;;;;;;5.06;100.00;98107.16;4189235;28;20309;-75
2023/02/23 05:30:23;;;;;;;20.38;12.77;;;;;;;5.08;100.00;98104.84;4188710;28;20478;-75
2023/02/23 05:32:24;;;;;;;26.08;17.20;;;;;;;5.07;100.00;98106.78;4191421;28;20051;-75
2023/02/23 05:34:24;;;;;;;29.27;17.77;;;;;;;5.05;100.00;98098.13;4191387;28;20047;-75
2023/02/23 05:36:24;;;;;;;26.13;16.75;;;;;;;5.07;100.00;98101.31;4192829;28;20472;-74
2023/02/23 05:38:26;;;;;;;20.92;14.20;;;;;;;5.07;100.00;98093.09;4191100;28;20052;-75
2023/02/23 05:40:26;;;;;;;22.50;15.80;;;;;;;5.07;100.00;98098.56;4191382;28;20112;-75
2023/02/23 05:42:26;;;;;;;20.23;14.60;;;;;;;5.08;100.00;98091.13;4194543;28;21054;-75
2023/02/23 05:44:27;;;;;;;22.30;14.77;;;;;;;5.06;100.00;98086.00;4193266;28;20044;-75
2023/02/23 05:46:28;;;;;;;21.90;13.85;;;;;;;5.06;100.00;98093.44;4186637;28;20135;-75
2023/02/23 05:48:29;;;;;;;16.05;11.73;;;;;;;5.05;100.00;98092.63;4192408;28;20056;-75
2023/02/23 05:50:29;;;;;;;18.42;12.20;;;;;;;5.03;100.00;98092.16;4190313;28;20041;-75
2023/02/23 05:52:29;;;;;;;23.00;12.65;;;;;;;5.03;100.00;98096.88;4192166;28;20035;-75
2023/02/23 05:54:30;;;;;;;20.30;12.27;;;;;;;5.02;100.00;98107.03;4193218;28;20025;-75
2023/02/23 05:56:30;;;;;;;20.42;12.55;;;;;;;5.00;100.00;98095.63;4189610;28;20477;-75
2023/02/23 05:58:31;;;;;;;16.35;11.50;;;;;;;4.98;100.00;98108.91;4188345;28;20387;-75
2023/02/23 06:00:31;;;;;;;19.25;11.18;;;;;;;4.98;100.00;98108.09;4191699;28;20044;-75
2023/02/23 06:02:32;;;;;;;16.55;10.25;;;;;;;4.93;100.00;98103.66;4190255;28;20495;-75
2023/02/23 06:04:33;;;;;;;17.92;10.70;;;;;;;4.93;100.00;98109.13;4190754;28;20037;-75
2023/02/23 06:06:33;;;;;;;18.42;11.50;;;;;;;4.91;100.00;98105.94;4188984;28;20488;-75
2023/02/23 06:08:34;;;;;;;19.73;11.57;;;;;;;4.88;100.00;98103.94;4193775;28;20104;-75
2023/02/23 06:10:34;;;;;;;17.00;10.85;;;;;;;4.86;100.00;98103.44;4188096;28;20107;-75
2023/02/23 06:12:34;;;;;;;17.92;10.57;;;;;;;4.86;100.00;98106.19;4188237;28;20057;-75
2023/02/23 06:14:35;;;;;;;16.55;10.73;;;;;;;4.84;100.00;98105.75;4187064;28;20056;-75
2023/02/23 06:16:35;;;;;;;18.90;10.55;;;;;;;4.85;100.00;98109.28;4187540;28;20434;-75
2023/02/23 06:18:36;;;;;;;16.80;11.35;;;;;;;4.84;100.00;98119.47;4188463;28;20076;-75
2023/02/23 06:20:36;;;;;;;16.60;10.88;;;;;;;4.85;100.00;98126.53;4189184;28;20427;-75
2023/02/23 06:22:37;;;;;;;18.85;9.73;;;;;;;4.84;100.00;98122.19;4189680;28;20071;-75
2023/02/23 06:24:37;;;;;;;17.77;11.02;;;;;;;4.87;100.00;98128.91;4192515;28;20029;-75
2023/02/23 06:26:38;;;;;;;20.33;11.18;;;;;;;4.91;100.00;98133.38;4193884;28;20040;-75
2023/02/23 06:28:38;;;;;;;16.77;10.63;;;;;;;4.92;100.00;98126.75;4196301;28;20048;-75
2023/02/23 06:30:39;;;;;;;18.00;12.35;;;;;;;4.92;100.00;98131.41;4193922;28;20392;-75
2023/02/23 06:32:39;;;;;;;16.52;10.88;;;;;;;4.91;100.00;98125.16;4197159;28;20037;-75
2023/02/23 06:34:39;;;;;;;17.67;11.45;;;;;;;4.93;100.00;98131.06;4191579;28;20056;-75
2023/02/23 06:36:40;;;;;;;17.65;11.80;;;;;;;4.94;100.00;98120.91;4193532;28;20037;-75
2023/02/23 06:38:40;;;;;;;21.15;11.90;;;;;;;4.94;100.00;98120.91;4195353;28;20445;-75
2023/02/23 06:40:42;;;;;;;22.35;12.05;;;;;;;4.96;100.00;98129.56;4144516;28;20101;-75
2023/02/23 06:42:42;;;;;;;17.40;11.25;;;;;;;4.97;100.00;98139.41;4201173;28;20048;-75
2023/02/23 06:44:42;;;;;;;19.38;12.35;;;;;;;4.93;100.00;98139.28;4193363;28;20177;-75
2023/02/23 06:46:42;;;;;;;19.15;10.88;;;;;;;4.95;100.00;98145.22;4191855;28;20053;-75
2023/02/23 06:48:43;;;;;;;18.30;10.93;;;;;;;4.95;100.00;98147.16;4195338;28;20076;-75
2023/02/23 06:50:43;;;;;;;16.77;10.55;;;;;;;4.96;100.00;98146.81;4194624;28;20422;-75
2023/02/23 06:52:44;;;;;;;22.90;11.07;;;;;;;4.98;100.00;98146.47;4192511;28;20122;-75
2023/02/23 06:54:45;;;;;;;24.15;12.15;;;;;;;5.00;100.00;98144.97;4195345;28;20049;-75
2023/02/23 06:56:45;;;;;;;21.20;12.60;;;;;;;5.04;100.00;98154.09;4196753;28;20071;-75
2023/02/23 06:58:46;;;;;;;17.20;12.15;;;;;;;5.08;100.00;98149.50;4195777;28;20497;-75
2023/02/23 07:00:47;;;;;;;21.60;13.13;;;;;;;5.10;100.00;98149.16;4195175;28;20075;-75
2023/02/23 07:02:47;;;;;;;18.85;12.55;;;;;;;5.12;100.00;98146.84;4193585;28;20441;-75
2023/02/23 07:04:47;;;;;;;24.08;13.38;;;;;;;5.12;100.00;98144.13;4193146;28;20044;-75
2023/02/23 07:06:48;;;;;;;23.33;13.52;;;;;;;5.14;100.00;98152.81;4194667;28;20418;-75
2023/02/23 07:08:48;;;;;;;23.75;13.20;;;;;;;5.16;100.00;98152.47;4193056;28;20503;-75
2023/02/23 07:10:48;;;;;;;18.08;12.80;;;;;;;5.19;100.00;98162.72;4192643;28;20048;-75
2023/02/23 07:12:49;;;;;;;24.13;13.82;;;;;;;5.22;100.00;98160.09;4191988;28;20131;-75
2023/02/23 07:14:49;;;;;;;24.35;15.15;;;;;;;5.25;100.00;98153.88;4193772;28;20068;-75
2023/02/23 07:16:49;;;;;;;25.48;15.40;;;;;;;5.31;100.00;98165.41;4193950;28;20543;-75
2023/02/23 07:18:50;;;;;;;22.92;15.43;;;;;;;5.35;100.00;98163.56;4193163;28;20053;-75
2023/02/23 07:20:53;;;;;;;28.77;18.50;;;;;;;5.39;100.00;98161.72;4194773;28;20032;-75
2023/02/23 07:22:53;;;;;;;24.70;16.45;;;;;;;5.41;100.00;98162.16;4192116;28;20716;-74
2023/02/23 07:24:54;;;;;;;25.80;17.85;;;;;;;5.47;100.00;98170.94;4195281;28;20076;-75
2023/02/23 07:26:55;;;;;;;30.35;19.85;;;;;;;5.50;100.00;98172.97;4193141;28;20435;-75
2023/02/23 07:28:55;;;;;;;28.80;19.15;;;;;;;5.53;100.00;98169.50;4196569;28;20044;-75
2023/02/23 07:30:57;;;;;;;27.15;17.85;;;;;;;5.55;100.00;98175.47;4192703;28;20046;-75
2023/02/23 07:32:57;;;;;;;28.27;18.13;;;;;;;5.59;100.00;98170.84;4198012;28;20139;-75
2023/02/23 07:34:57;;;;;;;24.05;16.50;;;;;;;5.64;100.00;98174.13;4193424;28;20130;-75
2023/02/23 07:36:58;;;;;;;26.50;17.25;;;;;;;5.64;100.00;98168.66;4193458;28;20193;-75
2023/02/23 07:38:58;;;;;;;29.33;17.77;;;;;;;5.69;100.00;98175.81;4194920;28;20210;-74
2023/02/23 07:40:58;;;;;;;28.15;16.67;;;;;;;5.72;100.00;98169.63;4191919;28;20066;-75
2023/02/23 07:42:59;;;;;;;27.08;16.92;;;;;;;5.77;100.00;98176.78;4192165;28;20511;-75
2023/02/23 07:44:59;;;;;;;26.67;16.33;;;;;;;5.80;100.00;98173.34;4196706;28;20079;-75
2023/02/23 07:47:00;;;;;;;24.95;14.95;;;;;;;5.83;100.00;98172.63;4193579;28;20072;-75
2023/02/23 07:49:00;;;;;;;25.40;16.40;;;;;;;5.86;100.00;98180.16;4192258;28;20098;-75
2023/02/23 07:51:00;;;;;;;25.60;15.13;;;;;;;5.88;100.00;98166.91;4192896;28;20432;-75
2023/02/23 07:53:01;;;;;;;30.02;17.10;;;;;;;5.94;100.00;98179.22;4191598;28;20140;-75
2023/02/23 07:55:03;;;;;;;25.00;16.42;;;;;;;5.96;100.00;98184.34;4191785;28;20112;-75
2023/02/23 07:57:03;;;;;;;26.65;16.33;;;;;;;6.00;100.00;98180.56;4192860;28;20052;-75
2023/02/23 07:59:03;;;;;;;24.70;15.82;;;;;;;6.02;100.00;98183.72;4193876;28;20094;-75
2023/02/23 08:01:04;;;;;;;24.45;16.33;;;;;;;6.08;100.00;98181.53;4191759;28;20037;-75
2023/02/23 08:03:06;;;;;;;24.50;15.07;;;;;;;6.09;100.00;98189.41;4191862;28;20045;-75
2023/02/23 08:05:07;;;;;;;24.60;14.75;;;;;;;6.11;100.00;98175.31;4194325;28;20070;-75
2023/02/23 08:07:08;;;;;;;24.35;14.02;;;;;;;6.16;100.00;98180.53;4191976;28;20465;-75
2023/02/23 08:09:10;;;;;;;22.85;13.50;;;;;;;6.18;100.00;98179.03;4194747;28;20121;-75
2023/02/23 08:11:10;;;;;;;21.70;13.40;;;;;;;6.24;100.00;98187.81;4193197;28;20408;-75
2023/02/23 08:13:11;;;;;;;18.48;12.55;;;;;;;6.27;100.00;98180.78;4195137;28;20051;-75
2023/02/23 08:15:11;;;;;;;28.63;14.85;;;;;;;6.27;100.00;98180.78;4192547;28;20049;-75
2023/02/23 08:17:11;;;;;;;24.08;13.63;;;;;;;6.35;100.00;98185.31;4191880;28;20040;-75
2023/02/23 08:19:12;;;;;;;22.00;13.40;;;;;;;6.35;100.00;98177.84;4195609;28;20076;-75
2023/02/23 08:21:12;;;;;;;20.35;13.48;;;;;;;6.39;100.00;98187.00;4191256;28;20090;-75
2023/02/23 08:23:12;;;;;;;22.45;12.63;;;;;;;6.39;100.00;98178.75;4190640;28;20044;-75
2023/02/23 08:25:13;;;;;;;22.55;12.93;;;;;;;6.42;100.00;98186.25;4193146;28;20485;-75
2023/02/23 08:27:13;;;;;;;20.25;12.85;;;;;;;6.45;100.00;98185.56;4194394;28;20040;-75
2023/02/23 08:29:13;;;;;;;17.83;12.55;;;;;;;6.48;100.00;98184.84;4194159;28;20040;-75
2023/02/23 08:31:19;;;;;;;21.17;13.25;;;;;;;6.47;100.00;98183.25;4191731;28;20041;-75
2023/02/23 08:33:20;;;;;;;19.77;13.10;;;;;;;6.49;100.00;98171.88;4190744;28;20526;-75
2023/02/23 08:35:21;;;;;;;21.00;13.25;;;;;;;6.55;100.00;98177.91;4197440;28;20051;-75
2023/02/23 08:37:23;;;;;;;21.40;13.65;;;;;;;6.57;100.00;98181.91;4191096;28;20037;-75
2023/02/23 08:39:23;;;;;;;24.10;14.60;;;;;;;6.63;100.00;98180.47;4192828;28;20073;-75
2023/02/23 08:41:24;;;;;;;26.48;14.27;;;;;;;6.68;100.00;98179.38;4191358;28;20120;-75
2023/02/23 08:43:24;;;;;;;24.10;15.15;;;;;;;6.70;100.00;98175.13;4190388;28;20044;-75
2023/02/23 08:45:28;;;;;;;23.73;14.40;;;;;;;6.74;100.00;98183.44;4190601;28;20045;-75
2023/02/23 08:47:28;;;;;;;22.10;13.13;;;;;;;6.74;100.00;98177.94;4191691;28;20051;-75
2023/02/23 08:49:31;;;;;;;20.58;12.85;;;;;;;6.74;100.00;98172.44;4191463;28;20384;-75
2023/02/23 08:51:33;;;;;;;24.98;14.07;;;;;;;6.81;100.00;98177.31;4189365;28;20123;-75
2023/02/23 08:53:34;;;;;;;24.17;14.63;;;;;;;6.85;100.00;98181.69;4190273;28;20047;-75
2023/02/23 08:55:37;;;;;;;23.88;14.38;;;;;;;6.91;100.00;98179.47;4192923;28;20063;-75
2023/02/23 08:57:37;;;;;;;25.27;14.68;;;;;;;6.96;100.00;98176.44;4191612;28;20063;-75
2023/02/23 08:59:38;;;;;;;23.50;15.25;;;;;;;7.00;100.00;98174.56;4193594;28;20472;-75
2023/02/23 09:01:38;;;;;;;27.80;17.35;;;;;;;7.06;100.00;98177.81;4218186;28;20070;-75
2023/02/23 09:03:39;;;;;;;23.55;15.98;;;;;;;7.10;100.00;98173.97;4195512;28;20063;-75
2023/02/23 09:05:40;;;;;;;26.98;16.88;;;;;;;7.18;100.00;98178.47;4192446;28;20291;-75
2023/02/23 09:07:45;;;;;;;24.05;15.85;;;;;;;7.21;100.00;98177.75;4193952;28;20040;-75
2023/02/23 09:09:45;;;;;;;25.38;15.48;;;;;;;7.24;100.00;98177.00;4191603;28;20488;-75
2023/02/23 09:11:45;;;;;;;28.48;15.93;;;;;;;7.31;100.00;98185.41;4191355;28;20314;-75
2023/02/23 09:13:46;;;;;;;27.35;15.18;;;;;;;7.31;100.00;98177.16;4189883;28;20109;-75
2023/02/23 09:15:46;;;;;;;22.38;13.88;;;;;;;7.36;100.00;98189.81;4197337;28;20056;-75
2023/02/23 09:17:47;;;;;;;20.85;13.80;;;;;;;7.39;100.00;98186.34;4189720;28;20126;-75
2023/02/23 09:19:49;;;;;;;22.65;15.00;;;;;;;7.41;100.00;98173.00;4194434;28;20052;-75
2023/02/23 09:21:49;;;;;;;26.93;15.97;;;;;;;7.43;100.00;98180.91;4192620;28;20040;-75
2023/02/23 09:23:51;;;;;;;28.67;16.25;;;;;;;7.47;100.00;98177.06;4191840;28;20278;-75
2023/02/23 09:25:51;;;;;;;26.60;16.13;;;;;;;7.50;100.00;98183.78;4135432;28;20278;-75
2023/02/23 09:27:55;;;;;;;23.45;14.43;;;;;;;7.52;100.00;98181.47;4192980;28;20136;-75
2023/02/23 09:29:56;;;;;;;26.98;15.35;;;;;;;7.55;100.00;98176.03;4194057;28;20036;-75
2023/02/23 09:31:56;;;;;;;23.13;14.27;;;;;;;7.59;100.00;98185.16;4191125;28;20543;-75
2023/02/23 09:33:59;;;;;;;35.08;17.00;;;;;;;7.64;100.00;98183.28;4190374;28;20052;-75
2023/02/23 09:36:02;;;;;;;35.60;18.23;;;;;;;7.67;100.00;98188.03;4190637;28;20043;-75
2023/02/23 09:38:05;;;;;;;30.85;17.38;;;;;;;7.72;100.00;98176.72;4189022;28;20392;-74
2023/02/23 09:40:06;;;;;;;25.88;16.70;;;;;;;7.76;100.00;98189.38;4193132;28;20040;-75
2023/02/23 09:42:34;;;;;;;35.58;18.05;;;;;;;7.84;100.00;98188.34;4190880;28;20043;-75
2023/02/23 09:44:52;;;;;;;29.52;16.85;;;;;;;7.94;100.00;98186.13;4190407;28;20036;-75
2023/02/23 09:47:02;;;;;;;27.02;16.23;;;;;;;8.01;100.00;98189.03;4193453;28;20064;-75
2023/02/23 09:49:05;;;;;;;26.40;15.13;;;;;;;8.10;100.00;98189.56;4192334;28;20072;-75
2023/02/23 09:51:07;;;;;;;24.17;15.60;;;;;;;8.16;100.00;98190.84;4190582;28;20067;-75
2023/02/23 09:53:34;;;;;;;;;;;;;;;8.25;100.00;98185.88;4190228;28;20790;-75
2023/02/23 09:55:39;;;;;;;26.00;14.80;;;;;;;8.34;100.00;98185.63;4187669;28;19999;-75
2023/02/23 09:57:44;;;;;;;25.13;15.45;;;;;;;8.43;100.00;98195.25;4189996;28;20496;-75
2023/02/23 09:59:45;;;;;;;28.08;16.52;;;;;;;8.49;100.00;98183.91;4193630;28;20048;-75
2023/02/23 10:01:59;;;;;;;27.85;16.58;;;;;;;8.54;100.00;98180.84;4195385;28;20126;-75
2023/02/23 10:04:20;;;;;;;28.58;15.95;;;;;;;8.66;100.00;98191.66;4193215;28;20041;-75
2023/02/23 10:06:21;;;;;;;27.38;16.95;;;;;;;8.71;100.00;98183.84;4194763;28;20063;-75
2023/02/23 10:08:37;;;;;;;25.63;16.40;;;;;;;8.77;100.00;98189.84;4193899;28;20068;-75
2023/02/23 10:10:48;;;;;;;26.65;16.52;;;;;;;8.82;100.00;98189.50;4198446;28;20094;-75
2023/02/23 10:13:08;;;;;;;29.23;16.65;;;;;;;8.92;100.00;98193.59;4193185;28;20054;-75
2023/02/23 10:15:40;;;;;;;33.92;18.67;;;;;;;8.99;100.00;98188.94;4194410;28;20052;-75
2023/02/23 10:18:11;;;;;;;30.58;18.50;;;;;;;9.10;100.00;98196.56;4194650;28;20040;-75
2023/02/23 10:20:33;;;;;;;30.55;17.70;;;;;;;9.19;100.00;98199.88;4193326;28;20049;-74
2023/02/23 10:22:34;;;;;;;32.15;18.33;;;;;;;9.25;100.00;98201.09;4196131;28;20489;-75
2023/02/23 10:24:40;;;;;;;34.97;20.80;;;;;;;9.36;100.00;98202.03;4198825;28;20348;-74
2023/02/23 10:26:51;;;;;;;36.83;21.15;;;;;;;9.45;100.00;98199.00;4195298;28;20112;-75
2023/02/23 10:28:56;;;;;;;34.88;20.85;;;;;;;9.48;100.00;98201.78;4198589;28;20040;-75
2023/02/23 10:30:56;;;;;;;35.13;20.50;;;;;;;9.54;100.00;98199.47;4196187;28;20480;-75
2023/02/23 10:33:34;;;;;;;38.63;21.40;;;;;;;9.62;100.00;98203.13;4194162;28;20049;-75
2023/02/23 10:35:38;;;;;;;36.13;22.23;;;;;;;9.65;100.00;98196.81;4195473;28;20389;-75
2023/02/23 10:37:38;;;;;;;42.25;23.50;;;;;;;9.68;100.00;98199.63;4192621;28;20043;-75
2023/02/23 10:39:40;;;;;;;43.28;24.67;;;;;;;9.69;100.00;98198.47;4193410;28;20476;-75
2023/02/23 10:41:41;;;;;;;39.63;22.80;;;;;;;9.78;100.00;98195.41;4199550;28;20051;-75
2023/02/23 10:43:41;;;;;;;38.80;21.52;;;;;;;9.82;100.00;98187.91;4197288;28;20581;-75
2023/02/23 10:45:51;;;;;;;39.22;22.70;;;;;;;9.84;100.00;98194.66;4194762;28;20056;-75